sensor_id;sensor_type;location;lat;lon;timestamp;temperature;humidity
64855;DHT22;51321;50.428;8.378;2022-10-23T00:00:20;9.50;99.90
64855;DHT22;51321;50.428;8.378;2022-10-23T00:02:42;9.50;99.90
64855;DHT22;51321;50.428;8.378;2022-10-23T00:05:04;9.50;99.90
64855;DHT22;51321;50.428;8.378;2022-10-23T00:07:27;9.60;99.90
64855;DHT22;51321;50.428;8.378;2022-10-23T00:09:51;9.60;99.90
64855;DHT22;51321;50.428;8.378;2022-10-23T00:12:13;9.50;99.90
64855;DHT22;51321;50.428;8.378;2022-10-23T00:14:35;9.50;99.90
64855;DHT22;51321;50.428;8.378;2022-10-23T00:16:57;9.50;99.90
64855;DHT22;51321;50.428;8.378;2022-10-23T00:19:19;9.40;99.90
64855;DHT22;51321;50.428;8.378;2022-10-23T00:21:41;9.40;99.90
64855;DHT22;51321;50.428;8.378;2022-10-23T00:24:04;9.40;99.90
64855;DHT22;51321;50.428;8.378;2022-10-23T00:26:27;9.30;99.90
64855;DHT22;51321;50.428;8.378;2022-10-23T00:28:51;9.30;99.90
64855;DHT22;51321;50.428;8.378;2022-10-23T00:31:14;9.40;99.90
64855;DHT22;51321;50.428;8.378;2022-10-23T00:33:37;9.30;99.90
64855;DHT22;51321;50.428;8.378;2022-10-23T00:35:59;9.40;99.90
64855;DHT22;51321;50.428;8.378;2022-10-23T00:38:22;9.50;99.90
64855;DHT22;51321;50.428;8.378;2022-10-23T00:40:44;9.50;99.90
64855;DHT22;51321;50.428;8.378;2022-10-23T00:43:16;9.30;99.90
64855;DHT22;51321;50.428;8.378;2022-10-23T00:45:39;9.30;99.90
64855;DHT22;51321;50.428;8.378;2022-10-23T00:48:02;9.20;99.90
64855;DHT22;51321;50.428;8.378;2022-10-23T00:50:25;9.20;99.90
64855;DHT22;51321;50.428;8.378;2022-10-23T00:52:51;9.20;99.90
64855;DHT22;51321;50.428;8.378;2022-10-23T00:55:15;9.10;99.90
64855;DHT22;51321;50.428;8.378;2022-10-23T00:57:40;9.10;99.90
64855;DHT22;51321;50.428;8.378;2022-10-23T01:00:05;9.20;99.90
64855;DHT22;51321;50.428;8.378;2022-10-23T01:02:27;9.20;99.90
64855;DHT22;51321;50.428;8.378;2022-10-23T01:04:49;9.20;99.90
64855;DHT22;51321;50.428;8.378;2022-10-23T01:07:15;9.20;99.90
64855;DHT22;51321;50.428;8.378;2022-10-23T01:09:44;9.20;99.90
64855;DHT22;51321;50.428;8.378;2022-10-23T01:12:12;9.10;99.90
64855;DHT22;51321;50.428;8.378;2022-10-23T01:14:41;9.00;99.90
64855;DHT22;51321;50.428;8.378;2022-10-23T01:17:10;9.10;99.90
64855;DHT22;51321;50.428;8.378;2022-10-23T01:19:43;9.10;99.90
64855;DHT22;51321;50.428;8.378;2022-10-23T01:22:15;9.00;99.90
64855;DHT22;51321;50.428;8.378;2022-10-23T01:24:45;9.00;99.90
64855;DHT22;51321;50.428;8.378;2022-10-23T01:27:18;9.10;99.90
64855;DHT22;51321;50.428;8.378;2022-10-23T01:29:43;9.00;99.90
64855;DHT22;51321;50.428;8.378;2022-10-23T01:32:09;8.90;99.90
64855;DHT22;51321;50.428;8.378;2022-10-23T01:34:42;8.90;99.90
64855;DHT22;51321;50.428;8.378;2022-10-23T01:37:08;9.00;99.90
64855;DHT22;51321;50.428;8.378;2022-10-23T01:39:35;9.10;99.90
64855;DHT22;51321;50.428;8.378;2022-10-23T01:42:02;9.00;99.90
64855;DHT22;51321;50.428;8.378;2022-10-23T01:44:31;9.00;99.90
64855;DHT22;51321;50.428;8.378;2022-10-23T01:46:56;9.10;99.90
64855;DHT22;51321;50.428;8.378;2022-10-23T01:49:22;9.10;99.90
64855;DHT22;51321;50.428;8.378;2022-10-23T01:51:51;9.10;99.90
64855;DHT22;51321;50.428;8.378;2022-10-23T01:54:15;9.00;99.90
64855;DHT22;51321;50.428;8.378;2022-10-23T01:56:41;9.00;99.90
64855;DHT22;51321;50.428;8.378;2022-10-23T01:59:08;9.10;99.90
64855;DHT22;51321;50.428;8.378;2022-10-23T02:01:36;9.20;99.90
64855;DHT22;51321;50.428;8.378;2022-10-23T02:04:02;9.20;99.90
64855;DHT22;51321;50.428;8.378;2022-10-23T02:06:27;9.20;99.90
64855;DHT22;51321;50.428;8.378;2022-10-23T02:08:49;9.30;99.90
64855;DHT22;51321;50.428;8.378;2022-10-23T02:11:13;9.30;99.90
64855;DHT22;51321;50.428;8.378;2022-10-23T02:13:41;9.40;99.90
64855;DHT22;51321;50.428;8.378;2022-10-23T02:16:14;9.40;99.90
64855;DHT22;51321;50.428;8.378;2022-10-23T02:18:48;9.40;99.90
64855;DHT22;51321;50.428;8.378;2022-10-23T02:21:14;9.30;99.90
64855;DHT22;51321;50.428;8.378;2022-10-23T02:23:50;9.40;99.90
64855;DHT22;51321;50.428;8.378;2022-10-23T02:26:16;9.40;99.90
64855;DHT22;51321;50.428;8.378;2022-10-23T02:28:52;9.50;99.90
64855;DHT22;51321;50.428;8.378;2022-10-23T02:31:16;9.40;99.90
64855;DHT22;51321;50.428;8.378;2022-10-23T02:33:43;9.50;99.90
64855;DHT22;51321;50.428;8.378;2022-10-23T02:36:06;9.50;99.90
64855;DHT22;51321;50.428;8.378;2022-10-23T02:38:32;9.40;99.90
64855;DHT22;51321;50.428;8.378;2022-10-23T02:40:57;9.40;99.90
64855;DHT22;51321;50.428;8.378;2022-10-23T02:43:24;9.40;99.90
64855;DHT22;51321;50.428;8.378;2022-10-23T02:45:51;9.40;99.90
64855;DHT22;51321;50.428;8.378;2022-10-23T02:48:18;9.20;99.90
64855;DHT22;51321;50.428;8.378;2022-10-23T02:50:50;9.20;99.90
64855;DHT22;51321;50.428;8.378;2022-10-23T02:53:16;9.10;99.90
64855;DHT22;51321;50.428;8.378;2022-10-23T02:55:45;9.20;99.90
64855;DHT22;51321;50.428;8.378;2022-10-23T02:58:19;9.10;99.90
64855;DHT22;51321;50.428;8.378;2022-10-23T03:00:51;9.30;99.90
64855;DHT22;51321;50.428;8.378;2022-10-23T03:03:18;9.40;99.90
64855;DHT22;51321;50.428;8.378;2022-10-23T03:05:41;9.40;99.90
64855;DHT22;51321;50.428;8.378;2022-10-23T03:08:08;9.50;99.90
64855;DHT22;51321;50.428;8.378;2022-10-23T03:10:30;9.50;99.90
64855;DHT22;51321;50.428;8.378;2022-10-23T03:12:52;9.50;99.90
64855;DHT22;51321;50.428;8.378;2022-10-23T03:15:15;9.40;99.90
64855;DHT22;51321;50.428;8.378;2022-10-23T03:17:37;9.40;99.90
64855;DHT22;51321;50.428;8.378;2022-10-23T03:19:59;9.30;99.90
64855;DHT22;51321;50.428;8.378;2022-10-23T03:22:22;9.30;99.90
64855;DHT22;51321;50.428;8.378;2022-10-23T03:24:45;9.30;99.90
64855;DHT22;51321;50.428;8.378;2022-10-23T03:27:07;9.30;99.90
64855;DHT22;51321;50.428;8.378;2022-10-23T03:29:30;9.30;99.90
64855;DHT22;51321;50.428;8.378;2022-10-23T03:31:53;9.30;99.90
64855;DHT22;51321;50.428;8.378;2022-10-23T03:34:15;9.30;99.90
64855;DHT22;51321;50.428;8.378;2022-10-23T03:36:39;9.30;99.90
64855;DHT22;51321;50.428;8.378;2022-10-23T03:39:03;9.40;99.90
64855;DHT22;51321;50.428;8.378;2022-10-23T03:41:27;9.40;99.90
64855;DHT22;51321;50.428;8.378;2022-10-23T03:43:56;9.40;99.90
64855;DHT22;51321;50.428;8.378;2022-10-23T03:46:18;9.40;99.90
64855;DHT22;51321;50.428;8.378;2022-10-23T03:48:43;9.40;99.90
64855;DHT22;51321;50.428;8.378;2022-10-23T03:51:05;9.40;99.90
64855;DHT22;51321;50.428;8.378;2022-10-23T03:53:28;9.40;99.90
64855;DHT22;51321;50.428;8.378;2022-10-23T03:55:50;9.40;99.90
64855;DHT22;51321;50.428;8.378;2022-10-23T03:58:13;9.40;99.90
64855;DHT22;51321;50.428;8.378;2022-10-23T04:00:35;9.40;99.90
64855;DHT22;51321;50.428;8.378;2022-10-23T04:02:58;9.30;99.90
64855;DHT22;51321;50.428;8.378;2022-10-23T04:05:20;9.40;99.90
64855;DHT22;51321;50.428;8.378;2022-10-23T04:07:48;9.50;99.90
64855;DHT22;51321;50.428;8.378;2022-10-23T04:10:10;9.50;99.90
64855;DHT22;51321;50.428;8.378;2022-10-23T04:12:33;9.50;99.90
64855;DHT22;51321;50.428;8.378;2022-10-23T04:14:56;9.40;99.90
64855;DHT22;51321;50.428;8.378;2022-10-23T04:17:18;9.30;99.90
64855;DHT22;51321;50.428;8.378;2022-10-23T04:19:43;9.20;99.90
64855;DHT22;51321;50.428;8.378;2022-10-23T04:22:05;9.20;99.90
64855;DHT22;51321;50.428;8.378;2022-10-23T04:24:27;9.20;99.90
64855;DHT22;51321;50.428;8.378;2022-10-23T04:26:51;9.20;99.90
64855;DHT22;51321;50.428;8.378;2022-10-23T04:29:14;9.30;99.90
64855;DHT22;51321;50.428;8.378;2022-10-23T04:31:38;9.40;99.90
64855;DHT22;51321;50.428;8.378;2022-10-23T04:34:00;9.30;99.90
64855;DHT22;51321;50.428;8.378;2022-10-23T04:36:24;9.40;99.90
64855;DHT22;51321;50.428;8.378;2022-10-23T04:38:46;9.40;99.90
64855;DHT22;51321;50.428;8.378;2022-10-23T04:41:09;9.30;99.90
64855;DHT22;51321;50.428;8.378;2022-10-23T04:43:31;9.30;99.90
64855;DHT22;51321;50.428;8.378;2022-10-23T04:45:53;9.40;99.90
64855;DHT22;51321;50.428;8.378;2022-10-23T04:48:16;9.40;99.90
64855;DHT22;51321;50.428;8.378;2022-10-23T04:50:59;9.40;99.90
64855;DHT22;51321;50.428;8.378;2022-10-23T04:53:39;9.30;99.90
64855;DHT22;51321;50.428;8.378;2022-10-23T04:56:19;9.30;99.90
64855;DHT22;51321;50.428;8.378;2022-10-23T04:58:44;9.30;99.90
64855;DHT22;51321;50.428;8.378;2022-10-23T05:01:07;9.40;99.90
64855;DHT22;51321;50.428;8.378;2022-10-23T05:03:31;9.50;99.90
64855;DHT22;51321;50.428;8.378;2022-10-23T05:05:54;9.50;99.90
64855;DHT22;51321;50.428;8.378;2022-10-23T05:08:36;9.50;99.90
64855;DHT22;51321;50.428;8.378;2022-10-23T05:11:28;9.40;99.90
64855;DHT22;51321;50.428;8.378;2022-10-23T05:13:51;9.30;99.90
64855;DHT22;51321;50.428;8.378;2022-10-23T05:16:27;9.40;99.90
64855;DHT22;51321;50.428;8.378;2022-10-23T05:18:52;9.40;99.90
64855;DHT22;51321;50.428;8.378;2022-10-23T05:21:18;9.30;99.90
64855;DHT22;51321;50.428;8.378;2022-10-23T05:23:44;9.10;99.90
64855;DHT22;51321;50.428;8.378;2022-10-23T05:26:07;9.10;99.90
64855;DHT22;51321;50.428;8.378;2022-10-23T05:28:30;9.20;99.90
64855;DHT22;51321;50.428;8.378;2022-10-23T05:30:53;9.20;99.90
64855;DHT22;51321;50.428;8.378;2022-10-23T05:33:20;9.20;99.90
64855;DHT22;51321;50.428;8.378;2022-10-23T05:35:45;9.10;99.90
64855;DHT22;51321;50.428;8.378;2022-10-23T05:38:10;9.00;99.90
64855;DHT22;51321;50.428;8.378;2022-10-23T05:40:33;9.00;99.90
64855;DHT22;51321;50.428;8.378;2022-10-23T05:43:00;8.90;99.90
64855;DHT22;51321;50.428;8.378;2022-10-23T05:45:45;8.80;99.90
64855;DHT22;51321;50.428;8.378;2022-10-23T05:48:37;8.80;99.90
64855;DHT22;51321;50.428;8.378;2022-10-23T05:51:20;8.90;99.90
64855;DHT22;51321;50.428;8.378;2022-10-23T05:53:55;9.00;99.90
64855;DHT22;51321;50.428;8.378;2022-10-23T05:56:28;9.00;99.90
64855;DHT22;51321;50.428;8.378;2022-10-23T05:59:02;9.00;99.90
64855;DHT22;51321;50.428;8.378;2022-10-23T06:01:40;9.00;99.90
64855;DHT22;51321;50.428;8.378;2022-10-23T06:04:03;8.90;99.90
64855;DHT22;51321;50.428;8.378;2022-10-23T06:06:47;8.90;99.90
64855;DHT22;51321;50.428;8.378;2022-10-23T06:09:10;8.90;99.90
64855;DHT22;51321;50.428;8.378;2022-10-23T06:11:33;8.90;99.90
64855;DHT22;51321;50.428;8.378;2022-10-23T06:14:01;8.90;99.90
64855;DHT22;51321;50.428;8.378;2022-10-23T06:16:24;8.90;99.90
64855;DHT22;51321;50.428;8.378;2022-10-23T06:18:47;8.90;99.90
64855;DHT22;51321;50.428;8.378;2022-10-23T06:21:12;8.90;99.90
64855;DHT22;51321;50.428;8.378;2022-10-23T06:23:38;9.00;99.90
64855;DHT22;51321;50.428;8.378;2022-10-23T06:26:18;9.00;99.90
64855;DHT22;51321;50.428;8.378;2022-10-23T06:28:49;8.90;99.90
64855;DHT22;51321;50.428;8.378;2022-10-23T06:31:15;8.90;99.90
64855;DHT22;51321;50.428;8.378;2022-10-23T06:33:39;8.80;99.90
64855;DHT22;51321;50.428;8.378;2022-10-23T06:36:02;8.80;99.90
64855;DHT22;51321;50.428;8.378;2022-10-23T06:38:25;8.90;99.90
64855;DHT22;51321;50.428;8.378;2022-10-23T06:40:53;8.90;99.90
64855;DHT22;51321;50.428;8.378;2022-10-23T06:43:23;9.00;99.90
64855;DHT22;51321;50.428;8.378;2022-10-23T06:46:08;9.00;99.90
64855;DHT22;51321;50.428;8.378;2022-10-23T06:48:49;9.10;99.90
64855;DHT22;51321;50.428;8.378;2022-10-23T06:51:18;9.20;99.90
64855;DHT22;51321;50.428;8.378;2022-10-23T06:53:42;9.30;99.90
64855;DHT22;51321;50.428;8.378;2022-10-23T06:56:28;9.30;99.90
64855;DHT22;51321;50.428;8.378;2022-10-23T06:58:51;9.30;99.90
64855;DHT22;51321;50.428;8.378;2022-10-23T07:01:14;9.30;99.90
64855;DHT22;51321;50.428;8.378;2022-10-23T07:03:38;9.30;99.90
64855;DHT22;51321;50.428;8.378;2022-10-23T07:06:03;9.30;99.90
64855;DHT22;51321;50.428;8.378;2022-10-23T07:08:26;9.40;99.90
64855;DHT22;51321;50.428;8.378;2022-10-23T07:10:50;9.50;99.90
64855;DHT22;51321;50.428;8.378;2022-10-23T07:13:15;9.50;99.90
64855;DHT22;51321;50.428;8.378;2022-10-23T07:16:11;9.60;99.90
64855;DHT22;51321;50.428;8.378;2022-10-23T07:18:34;9.70;99.90
64855;DHT22;51321;50.428;8.378;2022-10-23T07:21:22;9.50;99.90
64855;DHT22;51321;50.428;8.378;2022-10-23T07:23:47;9.50;99.90
64855;DHT22;51321;50.428;8.378;2022-10-23T07:26:11;9.70;99.90
64855;DHT22;51321;50.428;8.378;2022-10-23T07:28:36;9.80;99.90
64855;DHT22;51321;50.428;8.378;2022-10-23T07:30:59;9.80;99.90
64855;DHT22;51321;50.428;8.378;2022-10-23T07:33:41;9.80;99.90
64855;DHT22;51321;50.428;8.378;2022-10-23T07:36:10;9.90;99.90
64855;DHT22;51321;50.428;8.378;2022-10-23T07:38:33;10.00;99.90
64855;DHT22;51321;50.428;8.378;2022-10-23T07:40:56;10.00;99.90
64855;DHT22;51321;50.428;8.378;2022-10-23T07:43:19;10.10;99.90
64855;DHT22;51321;50.428;8.378;2022-10-23T07:45:45;10.30;99.90
64855;DHT22;51321;50.428;8.378;2022-10-23T07:48:13;10.40;99.90
64855;DHT22;51321;50.428;8.378;2022-10-23T07:50:57;10.50;99.90
64855;DHT22;51321;50.428;8.378;2022-10-23T07:53:24;10.70;99.90
64855;DHT22;51321;50.428;8.378;2022-10-23T07:55:52;10.80;99.90
64855;DHT22;51321;50.428;8.378;2022-10-23T07:58:15;10.70;99.90
64855;DHT22;51321;50.428;8.378;2022-10-23T08:00:48;10.80;99.90
64855;DHT22;51321;50.428;8.378;2022-10-23T08:03:22;11.00;99.90
64855;DHT22;51321;50.428;8.378;2022-10-23T08:05:44;11.00;99.90
64855;DHT22;51321;50.428;8.378;2022-10-23T08:08:07;11.00;99.90
64855;DHT22;51321;50.428;8.378;2022-10-23T08:10:31;11.10;99.90
64855;DHT22;51321;50.428;8.378;2022-10-23T08:12:53;11.10;99.90
64855;DHT22;51321;50.428;8.378;2022-10-23T08:15:29;11.10;99.90
64855;DHT22;51321;50.428;8.378;2022-10-23T08:17:58;11.00;99.90
64855;DHT22;51321;50.428;8.378;2022-10-23T08:20:37;11.10;99.90
64855;DHT22;51321;50.428;8.378;2022-10-23T08:23:00;11.10;99.90
64855;DHT22;51321;50.428;8.378;2022-10-23T08:25:23;11.10;99.90
64855;DHT22;51321;50.428;8.378;2022-10-23T08:27:47;11.30;99.90
64855;DHT22;51321;50.428;8.378;2022-10-23T08:30:10;11.30;99.90
64855;DHT22;51321;50.428;8.378;2022-10-23T08:32:32;11.40;99.90
64855;DHT22;51321;50.428;8.378;2022-10-23T08:34:58;11.30;99.90
64855;DHT22;51321;50.428;8.378;2022-10-23T08:37:22;11.30;99.90
64855;DHT22;51321;50.428;8.378;2022-10-23T08:39:45;11.40;99.90
64855;DHT22;51321;50.428;8.378;2022-10-23T08:42:19;11.40;99.90
64855;DHT22;51321;50.428;8.378;2022-10-23T08:44:49;11.50;99.90
64855;DHT22;51321;50.428;8.378;2022-10-23T08:47:18;11.40;99.90
64855;DHT22;51321;50.428;8.378;2022-10-23T08:50:11;11.40;99.90
64855;DHT22;51321;50.428;8.378;2022-10-23T08:52:40;11.60;99.90
64855;DHT22;51321;50.428;8.378;2022-10-23T08:55:13;11.70;99.90
64855;DHT22;51321;50.428;8.378;2022-10-23T08:57:40;11.80;99.90
64855;DHT22;51321;50.428;8.378;2022-10-23T09:00:05;11.90;99.90
64855;DHT22;51321;50.428;8.378;2022-10-23T09:02:31;11.90;99.90
64855;DHT22;51321;50.428;8.378;2022-10-23T09:04:56;11.80;99.90
64855;DHT22;51321;50.428;8.378;2022-10-23T09:07:26;12.00;99.90
64855;DHT22;51321;50.428;8.378;2022-10-23T09:10:00;12.00;99.90
64855;DHT22;51321;50.428;8.378;2022-10-23T09:12:25;12.20;99.90
64855;DHT22;51321;50.428;8.378;2022-10-23T09:17:31;12.60;99.90
64855;DHT22;51321;50.428;8.378;2022-10-23T09:19:58;12.70;99.90
64855;DHT22;51321;50.428;8.378;2022-10-23T09:22:22;12.70;99.90
64855;DHT22;51321;50.428;8.378;2022-10-23T09:24:44;12.70;99.90
64855;DHT22;51321;50.428;8.378;2022-10-23T09:27:13;12.70;99.90
64855;DHT22;51321;50.428;8.378;2022-10-23T09:29:36;12.70;99.90
64855;DHT22;51321;50.428;8.378;2022-10-23T09:31:59;12.80;99.90
64855;DHT22;51321;50.428;8.378;2022-10-23T09:34:24;12.80;99.90
64855;DHT22;51321;50.428;8.378;2022-10-23T09:36:49;12.90;99.90
64855;DHT22;51321;50.428;8.378;2022-10-23T09:39:22;13.00;99.90
64855;DHT22;51321;50.428;8.378;2022-10-23T09:41:45;13.10;99.90
64855;DHT22;51321;50.428;8.378;2022-10-23T09:44:17;13.10;99.90
64855;DHT22;51321;50.428;8.378;2022-10-23T09:46:42;13.30;99.90
64855;DHT22;51321;50.428;8.378;2022-10-23T09:49:05;13.30;99.90
64855;DHT22;51321;50.428;8.378;2022-10-23T09:51:29;13.40;99.90
64855;DHT22;51321;50.428;8.378;2022-10-23T09:53:53;13.50;99.90
64855;DHT22;51321;50.428;8.378;2022-10-23T09:56:26;13.50;99.90
64855;DHT22;51321;50.428;8.378;2022-10-23T09:58:53;13.50;99.90
64855;DHT22;51321;50.428;8.378;2022-10-23T10:01:23;13.50;99.90
64855;DHT22;51321;50.428;8.378;2022-10-23T10:03:48;13.50;99.90
64855;DHT22;51321;50.428;8.378;2022-10-23T10:06:21;13.50;99.90
64855;DHT22;51321;50.428;8.378;2022-10-23T10:08:49;13.70;99.90
64855;DHT22;51321;50.428;8.378;2022-10-23T10:11:18;13.80;99.90
64855;DHT22;51321;50.428;8.378;2022-10-23T10:14:03;13.90;99.90
64855;DHT22;51321;50.428;8.378;2022-10-23T10:16:36;13.90;99.90
64855;DHT22;51321;50.428;8.378;2022-10-23T10:19:08;13.90;99.90
64855;DHT22;51321;50.428;8.378;2022-10-23T10:21:37;14.00;99.90
64855;DHT22;51321;50.428;8.378;2022-10-23T10:24:05;14.00;99.90
64855;DHT22;51321;50.428;8.378;2022-10-23T10:26:35;14.00;99.90
64855;DHT22;51321;50.428;8.378;2022-10-23T10:29:12;14.00;99.90
64855;DHT22;51321;50.428;8.378;2022-10-23T10:31:47;14.20;99.90
64855;DHT22;51321;50.428;8.378;2022-10-23T10:34:21;14.20;99.90
64855;DHT22;51321;50.428;8.378;2022-10-23T10:36:50;14.30;99.90
64855;DHT22;51321;50.428;8.378;2022-10-23T10:39:26;14.30;99.90
64855;DHT22;51321;50.428;8.378;2022-10-23T10:41:58;14.40;99.90
64855;DHT22;51321;50.428;8.378;2022-10-23T10:44:47;14.50;99.90
64855;DHT22;51321;50.428;8.378;2022-10-23T10:47:14;14.60;99.90
64855;DHT22;51321;50.428;8.378;2022-10-23T10:49:46;14.60;99.90
64855;DHT22;51321;50.428;8.378;2022-10-23T10:52:33;14.90;99.90
64855;DHT22;51321;50.428;8.378;2022-10-23T10:55:02;15.00;99.90
64855;DHT22;51321;50.428;8.378;2022-10-23T10:57:33;15.30;99.90
64855;DHT22;51321;50.428;8.378;2022-10-23T11:00:02;15.40;99.90
64855;DHT22;51321;50.428;8.378;2022-10-23T11:02:26;15.40;99.90
64855;DHT22;51321;50.428;8.378;2022-10-23T11:04:53;15.50;99.90
64855;DHT22;51321;50.428;8.378;2022-10-23T11:07:20;15.60;99.90
64855;DHT22;51321;50.428;8.378;2022-10-23T11:09:43;15.60;99.90
64855;DHT22;51321;50.428;8.378;2022-10-23T11:12:11;15.60;99.90
64855;DHT22;51321;50.428;8.378;2022-10-23T11:14:35;15.60;99.90
64855;DHT22;51321;50.428;8.378;2022-10-23T11:17:03;15.70;99.90
64855;DHT22;51321;50.428;8.378;2022-10-23T11:19:34;15.60;99.90
64855;DHT22;51321;50.428;8.378;2022-10-23T11:22:03;15.60;99.90
64855;DHT22;51321;50.428;8.378;2022-10-23T11:28:07;15.40;99.90
64855;DHT22;51321;50.428;8.378;2022-10-23T11:30:46;15.40;99.90
64855;DHT22;51321;50.428;8.378;2022-10-23T11:36:44;15.30;99.90
64855;DHT22;51321;50.428;8.378;2022-10-23T11:39:15;15.30;99.90
64855;DHT22;51321;50.428;8.378;2022-10-23T11:41:47;15.30;99.90
64855;DHT22;51321;50.428;8.378;2022-10-23T11:44:27;15.40;99.90
64855;DHT22;51321;50.428;8.378;2022-10-23T11:46:59;15.50;99.90
64855;DHT22;51321;50.428;8.378;2022-10-23T11:49:21;15.60;99.90
64855;DHT22;51321;50.428;8.378;2022-10-23T11:51:45;15.80;99.90
64855;DHT22;51321;50.428;8.378;2022-10-23T11:54:19;16.00;99.90
64855;DHT22;51321;50.428;8.378;2022-10-23T11:56:51;16.10;99.90
64855;DHT22;51321;50.428;8.378;2022-10-23T11:59:21;16.20;99.90
64855;DHT22;51321;50.428;8.378;2022-10-23T12:01:44;16.20;99.90
64855;DHT22;51321;50.428;8.378;2022-10-23T12:04:17;16.30;99.90
64855;DHT22;51321;50.428;8.378;2022-10-23T12:06:46;16.40;99.90
64855;DHT22;51321;50.428;8.378;2022-10-23T12:09:24;16.50;99.90
64855;DHT22;51321;50.428;8.378;2022-10-23T12:11:48;16.50;99.90
64855;DHT22;51321;50.428;8.378;2022-10-23T12:14:32;16.50;99.90
64855;DHT22;51321;50.428;8.378;2022-10-23T12:16:55;16.40;99.90
64855;DHT22;51321;50.428;8.378;2022-10-23T12:19:20;16.40;99.90
64855;DHT22;51321;50.428;8.378;2022-10-23T12:21:43;16.30;99.90
64855;DHT22;51321;50.428;8.378;2022-10-23T12:27:23;16.30;99.90
64855;DHT22;51321;50.428;8.378;2022-10-23T12:29:56;16.30;99.90
64855;DHT22;51321;50.428;8.378;2022-10-23T12:32:24;16.40;99.90
64855;DHT22;51321;50.428;8.378;2022-10-23T12:35:02;16.40;99.90
64855;DHT22;51321;50.428;8.378;2022-10-23T12:37:43;16.60;99.90
64855;DHT22;51321;50.428;8.378;2022-10-23T12:40:09;16.90;99.90
64855;DHT22;51321;50.428;8.378;2022-10-23T12:42:36;17.40;99.90
64855;DHT22;51321;50.428;8.378;2022-10-23T12:44:59;17.60;99.90
64855;DHT22;51321;50.428;8.378;2022-10-23T12:47:21;17.80;99.90
64855;DHT22;51321;50.428;8.378;2022-10-23T12:49:48;17.80;99.90
64855;DHT22;51321;50.428;8.378;2022-10-23T12:52:16;17.80;99.90
64855;DHT22;51321;50.428;8.378;2022-10-23T12:54:38;17.70;99.90
64855;DHT22;51321;50.428;8.378;2022-10-23T12:57:01;17.60;99.90
64855;DHT22;51321;50.428;8.378;2022-10-23T12:59:27;17.60;99.90
64855;DHT22;51321;50.428;8.378;2022-10-23T13:01:53;17.60;99.90
64855;DHT22;51321;50.428;8.378;2022-10-23T13:04:22;17.60;99.90
64855;DHT22;51321;50.428;8.378;2022-10-23T13:06:48;17.50;99.90
64855;DHT22;51321;50.428;8.378;2022-10-23T13:09:19;17.40;99.90
64855;DHT22;51321;50.428;8.378;2022-10-23T13:12:04;17.40;99.90
64855;DHT22;51321;50.428;8.378;2022-10-23T13:14:31;17.50;99.90
64855;DHT22;51321;50.428;8.378;2022-10-23T13:16:58;17.60;99.90
64855;DHT22;51321;50.428;8.378;2022-10-23T13:19:22;17.70;99.90
64855;DHT22;51321;50.428;8.378;2022-10-23T13:21:45;17.80;99.90
64855;DHT22;51321;50.428;8.378;2022-10-23T13:24:18;17.80;99.90
64855;DHT22;51321;50.428;8.378;2022-10-23T13:26:40;17.80;99.90
64855;DHT22;51321;50.428;8.378;2022-10-23T13:29:18;17.80;99.90
64855;DHT22;51321;50.428;8.378;2022-10-23T13:31:41;17.80;99.90
64855;DHT22;51321;50.428;8.378;2022-10-23T13:34:23;17.60;99.90
64855;DHT22;51321;50.428;8.378;2022-10-23T13:36:57;17.50;99.90
64855;DHT22;51321;50.428;8.378;2022-10-23T13:39:22;17.50;99.90
64855;DHT22;51321;50.428;8.378;2022-10-23T13:41:45;17.60;99.90
64855;DHT22;51321;50.428;8.378;2022-10-23T13:44:12;17.60;99.90
64855;DHT22;51321;50.428;8.378;2022-10-23T13:46:34;17.50;99.90
64855;DHT22;51321;50.428;8.378;2022-10-23T13:48:57;17.50;99.90
64855;DHT22;51321;50.428;8.378;2022-10-23T13:51:21;17.40;99.90
64855;DHT22;51321;50.428;8.378;2022-10-23T13:53:46;17.40;99.90
64855;DHT22;51321;50.428;8.378;2022-10-23T13:56:08;17.40;99.90
64855;DHT22;51321;50.428;8.378;2022-10-23T13:58:31;17.40;99.90
64855;DHT22;51321;50.428;8.378;2022-10-23T14:00:53;17.40;99.90
64855;DHT22;51321;50.428;8.378;2022-10-23T14:03:15;17.30;99.90
64855;DHT22;51321;50.428;8.378;2022-10-23T14:05:39;17.30;99.90
64855;DHT22;51321;50.428;8.378;2022-10-23T14:08:01;17.30;99.90
64855;DHT22;51321;50.428;8.378;2022-10-23T14:10:23;17.30;99.90
64855;DHT22;51321;50.428;8.378;2022-10-23T14:12:46;17.20;99.90
64855;DHT22;51321;50.428;8.378;2022-10-23T14:15:13;17.20;99.90
64855;DHT22;51321;50.428;8.378;2022-10-23T14:17:35;17.20;99.90
64855;DHT22;51321;50.428;8.378;2022-10-23T14:19:57;17.20;99.90
64855;DHT22;51321;50.428;8.378;2022-10-23T14:22:21;17.20;99.90
64855;DHT22;51321;50.428;8.378;2022-10-23T14:24:43;17.10;99.90
64855;DHT22;51321;50.428;8.378;2022-10-23T14:27:05;17.00;99.90
64855;DHT22;51321;50.428;8.378;2022-10-23T14:29:27;16.90;99.90
64855;DHT22;51321;50.428;8.378;2022-10-23T14:31:50;16.90;99.90
64855;DHT22;51321;50.428;8.378;2022-10-23T14:34:12;16.90;99.90
64855;DHT22;51321;50.428;8.378;2022-10-23T14:36:34;16.90;99.90
64855;DHT22;51321;50.428;8.378;2022-10-23T14:38:58;16.90;99.90
64855;DHT22;51321;50.428;8.378;2022-10-23T14:41:20;16.80;99.90
64855;DHT22;51321;50.428;8.378;2022-10-23T14:43:42;16.90;99.90
64855;DHT22;51321;50.428;8.378;2022-10-23T14:46:08;16.90;99.90
64855;DHT22;51321;50.428;8.378;2022-10-23T14:48:30;16.90;99.90
64855;DHT22;51321;50.428;8.378;2022-10-23T14:50:52;17.00;99.90
64855;DHT22;51321;50.428;8.378;2022-10-23T14:53:15;16.90;99.90
64855;DHT22;51321;50.428;8.378;2022-10-23T14:55:38;16.90;99.90
64855;DHT22;51321;50.428;8.378;2022-10-23T14:58:01;16.90;99.90
64855;DHT22;51321;50.428;8.378;2022-10-23T15:00:23;16.80;99.90
64855;DHT22;51321;50.428;8.378;2022-10-23T15:02:45;16.90;99.90
64855;DHT22;51321;50.428;8.378;2022-10-23T15:05:07;16.90;99.90
64855;DHT22;51321;50.428;8.378;2022-10-23T15:07:29;16.80;99.90
64855;DHT22;51321;50.428;8.378;2022-10-23T15:09:51;16.80;99.90
64855;DHT22;51321;50.428;8.378;2022-10-23T15:12:16;16.80;99.90
64855;DHT22;51321;50.428;8.378;2022-10-23T15:14:38;16.80;99.90
64855;DHT22;51321;50.428;8.378;2022-10-23T15:17:00;16.80;99.90
64855;DHT22;51321;50.428;8.378;2022-10-23T15:19:23;16.80;99.90
64855;DHT22;51321;50.428;8.378;2022-10-23T15:21:46;16.80;99.90
64855;DHT22;51321;50.428;8.378;2022-10-23T15:24:08;16.70;99.90
64855;DHT22;51321;50.428;8.378;2022-10-23T15:26:30;16.70;99.90
64855;DHT22;51321;50.428;8.378;2022-10-23T15:28:54;16.70;99.90
64855;DHT22;51321;50.428;8.378;2022-10-23T15:31:39;16.70;99.90
64855;DHT22;51321;50.428;8.378;2022-10-23T15:34:03;16.70;99.90
64855;DHT22;51321;50.428;8.378;2022-10-23T15:36:25;16.60;99.90
64855;DHT22;51321;50.428;8.378;2022-10-23T15:38:48;16.60;99.90
64855;DHT22;51321;50.428;8.378;2022-10-23T15:41:14;16.50;99.90
64855;DHT22;51321;50.428;8.378;2022-10-23T15:43:36;16.50;99.90
64855;DHT22;51321;50.428;8.378;2022-10-23T15:45:59;16.40;99.90
64855;DHT22;51321;50.428;8.378;2022-10-23T15:48:21;16.50;99.90